createdAt,value
2022-09-26T00:00:06.301Z,1002.18
2022-09-26T00:01:06.350Z,1002.20
2022-09-26T00:02:06.362Z,1002.16
2022-09-26T00:03:06.278Z,1002.15
2022-09-26T00:04:06.274Z,1002.13
2022-09-26T00:05:06.253Z,1002.09
2022-09-26T00:06:06.241Z,1002.08
2022-09-26T00:07:06.241Z,1002.11
2022-09-26T00:08:06.224Z,1002.03
2022-09-26T00:09:06.344Z,1002.08
2022-09-26T00:10:06.199Z,1002.08
2022-09-26T00:11:06.194Z,1002.08
2022-09-26T00:12:06.179Z,1002.07
2022-09-26T00:13:06.170Z,1002.07
2022-09-26T00:14:06.168Z,1002.06
2022-09-26T00:15:06.151Z,1002.03
2022-09-26T00:16:06.136Z,1002.03
2022-09-26T00:17:06.173Z,1002.01
2022-09-26T00:18:06.123Z,1001.98
2022-09-26T00:19:06.147Z,1001.95
2022-09-26T00:20:06.099Z,1001.95
2022-09-26T00:21:06.082Z,1001.96
2022-09-26T00:22:06.067Z,1001.93
2022-09-26T00:23:06.055Z,1001.91
2022-09-26T00:24:06.051Z,1001.92
2022-09-26T00:25:06.036Z,1001.94
2022-09-26T00:26:06.025Z,1001.92
2022-09-26T00:27:06.006Z,1001.95
2022-09-26T00:28:06.003Z,1001.94
2022-09-26T00:29:06.074Z,1001.94
2022-09-26T00:30:06.018Z,1001.97
2022-09-26T00:31:06.047Z,1001.95
2022-09-26T00:32:05.962Z,1001.94
2022-09-26T00:33:05.945Z,1001.91
2022-09-26T00:34:05.938Z,1001.94
2022-09-26T00:35:05.958Z,1001.95
2022-09-26T00:36:05.920Z,1001.97
2022-09-26T00:37:05.895Z,1001.97
2022-09-26T00:38:05.893Z,1001.99
2022-09-26T00:39:05.983Z,1001.98
2022-09-26T00:40:05.888Z,1001.98
2022-09-26T00:41:05.851Z,1001.94
2022-09-26T00:42:05.850Z,1001.94
2022-09-26T00:43:05.836Z,1001.96
2022-09-26T00:44:05.834Z,1001.94
2022-09-26T00:45:05.824Z,1001.99
2022-09-26T00:46:05.965Z,1001.97
2022-09-26T00:47:05.792Z,1001.99
2022-09-26T00:48:05.787Z,1001.97
2022-09-26T00:49:05.863Z,1001.94
2022-09-26T00:50:05.767Z,1001.90
2022-09-26T00:51:05.751Z,1001.92
2022-09-26T00:52:05.741Z,1001.92
2022-09-26T00:53:05.730Z,1001.91
2022-09-26T00:54:05.717Z,1001.91
2022-09-26T00:55:05.720Z,1001.90
2022-09-26T00:56:05.701Z,1001.86
2022-09-26T00:57:05.684Z,1001.87
2022-09-26T00:58:05.678Z,1001.90
2022-09-26T00:59:05.705Z,1001.90
2022-09-26T01:00:05.667Z,1001.89
2022-09-26T01:01:05.796Z,1001.84
2022-09-26T01:02:05.818Z,1001.83
2022-09-26T01:03:05.621Z,1001.85
2022-09-26T01:04:05.615Z,1001.83
2022-09-26T01:05:05.601Z,1001.84
2022-09-26T01:06:05.610Z,1001.81
2022-09-26T01:07:05.577Z,1001.80
2022-09-26T01:08:05.589Z,1001.81
2022-09-26T01:09:05.607Z,1001.80
2022-09-26T01:10:05.548Z,1001.74
2022-09-26T01:11:05.539Z,1001.74
2022-09-26T01:12:05.530Z,1001.75
2022-09-26T01:13:05.505Z,1001.66
2022-09-26T01:14:05.513Z,1001.65
2022-09-26T01:15:05.519Z,1001.68
2022-09-26T01:16:05.516Z,1001.66
2022-09-26T01:17:05.502Z,1001.66
2022-09-26T01:18:05.463Z,1001.62
2022-09-26T01:19:05.523Z,1001.63
2022-09-26T01:20:05.450Z,1001.63
2022-09-26T01:21:05.432Z,1001.61
2022-09-26T01:22:05.423Z,1001.63
2022-09-26T01:23:05.406Z,1001.64
2022-09-26T01:24:05.398Z,1001.61
2022-09-26T01:25:05.382Z,1001.61
2022-09-26T01:26:05.372Z,1001.60
2022-09-26T01:27:05.358Z,1001.57
2022-09-26T01:28:05.365Z,1001.56
2022-09-26T01:29:05.377Z,1001.57
2022-09-26T01:30:05.330Z,1001.58
2022-09-26T01:31:05.488Z,1001.56
2022-09-26T01:32:05.318Z,1001.53
2022-09-26T01:33:05.313Z,1001.52
2022-09-26T01:34:05.294Z,1001.48
2022-09-26T01:35:05.277Z,1001.47
2022-09-26T01:36:05.274Z,1001.46
2022-09-26T01:37:05.250Z,1001.46
2022-09-26T01:38:05.257Z,1001.44
2022-09-26T01:39:05.301Z,1001.38
2022-09-26T01:40:05.243Z,1001.43
2022-09-26T01:41:05.212Z,1001.41
2022-09-26T01:42:05.201Z,1001.39
2022-09-26T01:43:05.185Z,1001.35
2022-09-26T01:44:05.198Z,1001.36
2022-09-26T01:45:05.175Z,1001.35
2022-09-26T01:46:05.190Z,1001.31
2022-09-26T01:47:05.147Z,1001.36
2022-09-26T01:48:05.140Z,1001.34
2022-09-26T01:49:05.226Z,1001.34
2022-09-26T01:50:05.127Z,1001.36
2022-09-26T01:51:05.111Z,1001.37
2022-09-26T01:52:05.090Z,1001.38
2022-09-26T01:53:05.093Z,1001.36
2022-09-26T01:54:05.078Z,1001.35
2022-09-26T01:55:05.073Z,1001.34
2022-09-26T01:56:05.051Z,1001.39
2022-09-26T01:57:05.046Z,1001.39
2022-09-26T01:58:05.048Z,1001.36
2022-09-26T01:59:05.090Z,1001.35
2022-09-26T02:00:05.022Z,1001.37
2022-09-26T02:01:05.072Z,1001.37
2022-09-26T02:02:05.025Z,1001.31
2022-09-26T02:03:04.974Z,1001.34
2022-09-26T02:04:04.964Z,1001.31
2022-09-26T02:05:04.949Z,1001.33
2022-09-26T02:06:04.961Z,1001.32
2022-09-26T02:07:04.934Z,1001.31
2022-09-26T02:08:04.937Z,1001.33
2022-09-26T02:09:04.911Z,1001.27
2022-09-26T02:10:04.914Z,1001.26
2022-09-26T02:11:04.897Z,1001.20
2022-09-26T02:12:04.899Z,1001.18
2022-09-26T02:13:04.864Z,1001.19
2022-09-26T02:14:04.877Z,1001.19
2022-09-26T02:15:04.840Z,1001.14
2022-09-26T02:16:04.871Z,1001.12
2022-09-26T02:17:04.834Z,1001.14
2022-09-26T02:18:04.815Z,1001.14
2022-09-26T02:19:04.806Z,1001.11
2022-09-26T02:20:04.790Z,1001.11
2022-09-26T02:21:04.850Z,1001.13
2022-09-26T02:22:04.781Z,1001.07
2022-09-26T02:23:04.755Z,1001.06
2022-09-26T02:24:04.757Z,1001.12
2022-09-26T02:25:04.754Z,1001.10
2022-09-26T02:26:04.735Z,1001.11
2022-09-26T02:27:04.721Z,1001.10
2022-09-26T02:28:04.721Z,1001.12
2022-09-26T02:29:04.689Z,1001.12
2022-09-26T02:30:04.692Z,1001.10
2022-09-26T02:31:04.686Z,1001.08
2022-09-26T02:32:04.735Z,1001.06
2022-09-26T02:33:04.674Z,1001.06
2022-09-26T02:34:04.641Z,1001.01
2022-09-26T02:35:04.626Z,1001.00
2022-09-26T02:36:04.621Z,1000.99
2022-09-26T02:37:04.604Z,1000.94
2022-09-26T02:38:04.616Z,1000.92
2022-09-26T02:39:04.597Z,1000.96
2022-09-26T02:40:04.572Z,1000.94
2022-09-26T02:41:04.566Z,1000.94
2022-09-26T02:42:04.562Z,1000.95
2022-09-26T02:43:04.555Z,1000.91
2022-09-26T02:44:04.546Z,1000.96
2022-09-26T02:45:04.526Z,1000.93
2022-09-26T02:46:04.576Z,1000.91
2022-09-26T02:47:04.496Z,1000.89
2022-09-26T02:48:04.500Z,1000.88
2022-09-26T02:49:04.487Z,1000.87
2022-09-26T02:50:04.487Z,1000.88
2022-09-26T02:51:04.453Z,1000.87
2022-09-26T02:52:04.452Z,1000.87
2022-09-26T02:53:04.433Z,1000.84
2022-09-26T02:54:04.428Z,1000.79
2022-09-26T02:55:04.427Z,1000.78
2022-09-26T02:56:04.412Z,1000.79
2022-09-26T02:57:04.393Z,1000.78
2022-09-26T02:58:04.378Z,1000.71
2022-09-26T02:59:04.370Z,1000.75
2022-09-26T03:00:04.358Z,1000.74
2022-09-26T03:01:04.425Z,1000.75
2022-09-26T03:02:04.364Z,1000.71
2022-09-26T03:03:04.320Z,1000.74
2022-09-26T03:04:04.318Z,1000.71
2022-09-26T03:05:04.361Z,1000.70
2022-09-26T03:06:04.307Z,1000.74
2022-09-26T03:07:04.312Z,1000.73
2022-09-26T03:08:04.271Z,1000.74
2022-09-26T03:09:04.258Z,1000.74
2022-09-26T03:10:04.244Z,1000.70
2022-09-26T03:11:04.233Z,1000.68
2022-09-26T03:12:04.235Z,1000.69
2022-09-26T03:13:04.222Z,1000.68
2022-09-26T03:14:04.218Z,1000.69
2022-09-26T03:15:04.201Z,1000.68
2022-09-26T03:16:04.233Z,1000.62
2022-09-26T03:17:04.172Z,1000.61
2022-09-26T03:18:04.179Z,1000.59
2022-09-26T03:19:04.158Z,1000.58
2022-09-26T03:20:04.140Z,1000.60
2022-09-26T03:21:04.130Z,1000.59
2022-09-26T03:22:04.125Z,1000.60
2022-09-26T03:23:04.109Z,1000.63
2022-09-26T03:24:04.109Z,1000.62
2022-09-26T03:25:04.089Z,1000.64
2022-09-26T03:26:04.071Z,1000.63
2022-09-26T03:27:04.058Z,1000.65
2022-09-26T03:28:04.052Z,1000.65
2022-09-26T03:29:04.050Z,1000.68
2022-09-26T03:30:04.054Z,1000.62
2022-09-26T03:31:04.019Z,1000.67
2022-09-26T03:32:04.110Z,1000.64
2022-09-26T03:33:03.994Z,1000.60
2022-09-26T03:34:03.996Z,1000.62
2022-09-26T03:35:04.013Z,1000.60
2022-09-26T03:36:03.961Z,1000.58
2022-09-26T03:37:03.959Z,1000.58
2022-09-26T03:38:03.941Z,1000.55
2022-09-26T03:39:03.935Z,1000.58
2022-09-26T03:40:03.959Z,1000.56
2022-09-26T03:41:03.993Z,1000.53
2022-09-26T03:42:03.913Z,1000.51
2022-09-26T03:43:03.897Z,1000.52
2022-09-26T03:44:03.880Z,1000.48
2022-09-26T03:45:03.873Z,1000.53
2022-09-26T03:46:03.945Z,1000.46
2022-09-26T03:47:03.847Z,1000.42
2022-09-26T03:48:03.831Z,1000.43
2022-09-26T03:49:03.843Z,1000.41
2022-09-26T03:50:03.819Z,1000.42
2022-09-26T03:51:03.807Z,1000.43
2022-09-26T03:52:03.866Z,1000.44
2022-09-26T03:53:03.781Z,1000.37
2022-09-26T03:54:03.778Z,1000.42
2022-09-26T03:55:03.757Z,1000.42
2022-09-26T03:56:03.759Z,1000.41
2022-09-26T03:57:03.744Z,1000.42
2022-09-26T03:58:03.738Z,1000.36
2022-09-26T03:59:03.720Z,1000.37
2022-09-26T04:00:03.710Z,1000.37
2022-09-26T04:01:03.801Z,1000.36
2022-09-26T04:02:03.767Z,1000.34
2022-09-26T04:03:03.690Z,1000.32
2022-09-26T04:04:03.663Z,1000.32
2022-09-26T04:05:03.663Z,1000.34
2022-09-26T04:06:03.642Z,1000.33
2022-09-26T04:07:03.632Z,1000.30
2022-09-26T04:08:03.639Z,1000.28
2022-09-26T04:09:03.610Z,1000.28
2022-09-26T04:10:03.610Z,1000.32
2022-09-26T04:11:03.595Z,1000.27
2022-09-26T04:12:03.583Z,1000.28
2022-09-26T04:13:03.578Z,1000.23
2022-09-26T04:14:03.577Z,1000.21
2022-09-26T04:15:03.545Z,1000.24
2022-09-26T04:16:03.599Z,1000.19
2022-09-26T04:17:03.534Z,1000.14
2022-09-26T04:18:03.519Z,1000.13
2022-09-26T04:19:03.533Z,1000.13
2022-09-26T04:20:03.497Z,1000.16
2022-09-26T04:21:06.815Z,1000.15
2022-09-26T04:22:03.478Z,1000.18
2022-09-26T04:23:03.459Z,1000.19
2022-09-26T04:24:03.458Z,1000.16
2022-09-26T04:25:03.439Z,1000.17
2022-09-26T04:26:03.428Z,1000.18
2022-09-26T04:27:03.411Z,1000.16
2022-09-26T04:28:03.408Z,1000.14
2022-09-26T04:29:03.397Z,1000.11
2022-09-26T04:30:03.396Z,1000.10
2022-09-26T04:31:03.379Z,1000.13
2022-09-26T04:32:03.425Z,1000.10
2022-09-26T04:33:03.350Z,1000.11
2022-09-26T04:34:03.372Z,1000.09
2022-09-26T04:35:03.342Z,1000.12
2022-09-26T04:36:03.335Z,1000.15
2022-09-26T04:37:03.312Z,1000.20
2022-09-26T04:38:03.292Z,1000.22
2022-09-26T04:39:03.295Z,1000.18
2022-09-26T04:40:03.281Z,1000.15
2022-09-26T04:41:03.343Z,1000.19
2022-09-26T04:42:03.257Z,1000.16
2022-09-26T04:43:03.254Z,1000.18
2022-09-26T04:44:03.229Z,1000.18
2022-09-26T04:45:03.247Z,1000.16
2022-09-26T04:46:03.274Z,1000.19
2022-09-26T04:47:03.205Z,1000.18
2022-09-26T04:48:03.193Z,1000.18
2022-09-26T04:49:03.170Z,1000.22
2022-09-26T04:50:03.176Z,1000.23
2022-09-26T04:51:03.191Z,1000.18
2022-09-26T04:52:03.153Z,1000.14
2022-09-26T04:53:03.184Z,1000.14
2022-09-26T04:54:03.133Z,1000.15
2022-09-26T04:55:03.116Z,1000.14
2022-09-26T04:56:03.109Z,1000.16
2022-09-26T04:57:03.106Z,1000.16
2022-09-26T04:58:03.073Z,1000.14
2022-09-26T04:59:03.073Z,1000.13
2022-09-26T05:00:03.055Z,1000.14
2022-09-26T05:01:03.108Z,1000.11
2022-09-26T05:02:03.109Z,1000.13
2022-09-26T05:03:03.014Z,1000.09
2022-09-26T05:04:03.016Z,1000.14
2022-09-26T05:05:02.996Z,1000.14
2022-09-26T05:06:03.063Z,1000.11
2022-09-26T05:07:02.972Z,1000.14
2022-09-26T05:08:02.969Z,1000.08
2022-09-26T05:09:02.952Z,1000.08
2022-09-26T05:10:02.949Z,1000.11
2022-09-26T05:11:02.933Z,1000.04
2022-09-26T05:12:02.936Z,1000.05
2022-09-26T05:13:02.911Z,1000.05
2022-09-26T05:14:02.901Z,1000.01
2022-09-26T05:15:02.879Z,1000.02
2022-09-26T05:16:02.985Z,1000.02
2022-09-26T05:17:02.872Z,1000.05
2022-09-26T05:18:02.862Z,1000.02
2022-09-26T05:19:02.858Z,1000.02
2022-09-26T05:20:02.836Z,1000.04
2022-09-26T05:21:02.823Z,1000.02
2022-09-26T05:22:02.817Z,1000.02
2022-09-26T05:23:02.828Z,1000.01
2022-09-26T05:24:02.796Z,1000.00
2022-09-26T05:25:02.784Z,999.99
2022-09-26T05:26:02.765Z,1000.00
2022-09-26T05:27:02.752Z,1000.03
2022-09-26T05:28:02.749Z,1000.00
2022-09-26T05:29:07.787Z,1000.01
2022-09-26T05:30:02.738Z,1000.00
2022-09-26T05:31:02.708Z,999.98
2022-09-26T05:32:02.787Z,999.99
2022-09-26T05:33:02.697Z,999.98
2022-09-26T05:34:02.708Z,1000.01
2022-09-26T05:35:02.682Z,999.98
2022-09-26T05:36:02.664Z,1000.00
2022-09-26T05:37:02.652Z,999.98
2022-09-26T05:38:02.637Z,1000.01
2022-09-26T05:39:02.643Z,1000.01
2022-09-26T05:40:02.638Z,1000.00
2022-09-26T05:41:02.673Z,999.99
2022-09-26T05:42:02.592Z,1000.01
2022-09-26T05:43:02.575Z,999.98
2022-09-26T05:44:02.593Z,999.99
2022-09-26T05:45:02.562Z,1000.01
2022-09-26T05:46:02.591Z,999.99
2022-09-26T05:47:02.650Z,999.97
2022-09-26T05:48:02.521Z,999.97
2022-09-26T05:49:02.527Z,1000.01
2022-09-26T05:50:02.531Z,999.97
2022-09-26T05:51:02.497Z,999.94
2022-09-26T05:52:02.481Z,999.94
2022-09-26T05:53:02.466Z,999.96
2022-09-26T05:54:02.466Z,999.96
2022-09-26T05:55:02.443Z,999.90
2022-09-26T05:56:02.452Z,999.96
2022-09-26T05:57:02.432Z,999.90
2022-09-26T05:58:02.427Z,999.89
2022-09-26T05:59:02.406Z,999.91
2022-09-26T06:00:02.412Z,999.91
2022-09-26T06:01:02.433Z,999.90
2022-09-26T06:02:02.435Z,999.92
2022-09-26T06:03:02.359Z,999.91
2022-09-26T06:04:02.351Z,999.92
2022-09-26T06:05:02.339Z,999.95
2022-09-26T06:06:02.348Z,999.94
2022-09-26T06:07:02.323Z,999.97
2022-09-26T06:08:02.311Z,999.93
2022-09-26T06:09:02.325Z,999.96
2022-09-26T06:10:02.295Z,999.98
2022-09-26T06:11:02.273Z,999.96
2022-09-26T06:12:02.291Z,999.96
2022-09-26T06:13:02.257Z,999.96
2022-09-26T06:14:02.245Z,999.96
2022-09-26T06:15:02.229Z,999.91
2022-09-26T06:16:02.278Z,999.93
2022-09-26T06:17:02.214Z,999.91
2022-09-26T06:18:02.221Z,999.85
2022-09-26T06:19:02.189Z,999.86
2022-09-26T06:20:02.190Z,999.85
2022-09-26T06:21:02.192Z,999.84
2022-09-26T06:22:02.174Z,999.80
2022-09-26T06:23:02.176Z,999.83
2022-09-26T06:24:02.132Z,999.83
2022-09-26T06:25:02.141Z,999.80
2022-09-26T06:26:02.107Z,999.76
2022-09-26T06:27:02.104Z,999.76
2022-09-26T06:28:02.089Z,999.75
2022-09-26T06:29:02.071Z,999.78
2022-09-26T06:30:02.076Z,999.74
2022-09-26T06:31:02.056Z,999.77
2022-09-26T06:32:02.104Z,999.78
2022-09-26T06:33:02.056Z,999.77
2022-09-26T06:34:02.022Z,999.72
2022-09-26T06:35:02.030Z,999.78
2022-09-26T06:36:02.014Z,999.71
2022-09-26T06:37:01.995Z,999.72
2022-09-26T06:38:01.970Z,999.69
2022-09-26T06:39:01.963Z,999.70
2022-09-26T06:40:01.965Z,999.65
2022-09-26T06:41:01.980Z,999.66
2022-09-26T06:42:01.931Z,999.67
2022-09-26T06:43:01.921Z,999.65
2022-09-26T06:44:01.912Z,999.65
2022-09-26T06:45:01.917Z,999.68
2022-09-26T06:46:01.921Z,999.68
2022-09-26T06:47:01.997Z,999.68
2022-09-26T06:48:01.866Z,999.66
2022-09-26T06:49:01.866Z,999.67
2022-09-26T06:50:01.841Z,999.68
2022-09-26T06:51:01.871Z,999.67
2022-09-26T06:52:01.827Z,999.65
2022-09-26T06:53:10.172Z,999.63
2022-09-26T06:54:01.816Z,999.65
2022-09-26T06:55:01.800Z,999.63
2022-09-26T06:56:01.783Z,999.65
2022-09-26T06:57:01.780Z,999.57
2022-09-26T06:58:01.767Z,999.59
2022-09-26T06:59:01.757Z,999.57
2022-09-26T07:00:01.730Z,999.57
2022-09-26T07:01:01.953Z,999.55
2022-09-26T07:02:01.894Z,999.57
2022-09-26T07:03:01.699Z,999.57
2022-09-26T07:04:01.691Z,999.56
2022-09-26T07:05:01.684Z,999.56
2022-09-26T07:06:01.679Z,999.56
2022-09-26T07:07:01.674Z,999.57
2022-09-26T07:08:01.649Z,999.55
2022-09-26T07:09:04.675Z,999.52
2022-09-26T07:10:01.633Z,999.52
2022-09-26T07:11:27.661Z,999.51
2022-09-26T07:12:16.943Z,999.50
2022-09-26T07:13:01.606Z,999.51
2022-09-26T07:14:01.579Z,999.54
2022-09-26T07:15:01.598Z,999.56
2022-09-26T07:16:01.661Z,999.51
2022-09-26T07:17:01.592Z,999.57
2022-09-26T07:18:01.556Z,999.59
2022-09-26T07:19:01.539Z,999.61
2022-09-26T07:20:01.519Z,999.58
2022-09-26T07:21:01.511Z,999.59
2022-09-26T07:22:01.511Z,999.55
2022-09-26T07:23:01.503Z,999.54
2022-09-26T07:24:01.477Z,999.51
2022-09-26T07:25:01.472Z,999.52
2022-09-26T07:26:01.458Z,999.49
2022-09-26T07:27:01.463Z,999.50
2022-09-26T07:28:01.463Z,999.46
2022-09-26T07:29:01.418Z,999.49
2022-09-26T07:30:01.430Z,999.48
2022-09-26T07:31:01.501Z,999.46
2022-09-26T07:32:01.445Z,999.42
2022-09-26T07:33:01.376Z,999.39
2022-09-26T07:34:01.383Z,999.39
2022-09-26T07:35:01.380Z,999.41
2022-09-26T07:36:05.297Z,999.40
2022-09-26T07:37:01.341Z,999.39
2022-09-26T07:38:01.321Z,999.35
2022-09-26T07:39:01.329Z,999.38
2022-09-26T07:40:02.016Z,999.35
2022-09-26T07:41:01.430Z,999.38
2022-09-26T07:42:01.276Z,999.37
2022-09-26T07:43:19.142Z,999.36
2022-09-26T07:45:22.350Z,999.37
2022-09-26T07:46:01.258Z,999.38
2022-09-26T07:47:01.309Z,999.39
2022-09-26T07:48:01.213Z,999.38
2022-09-26T07:49:01.199Z,999.33
2022-09-26T07:50:01.199Z,999.32
2022-09-26T07:51:03.553Z,999.33
2022-09-26T07:52:01.170Z,999.33
2022-09-26T07:53:01.163Z,999.29
2022-09-26T07:54:01.143Z,999.33
2022-09-26T07:55:01.138Z,999.35
2022-09-26T07:56:01.146Z,999.29
2022-09-26T07:57:01.111Z,999.34
2022-09-26T07:58:01.109Z,999.36
2022-09-26T07:59:01.104Z,999.33
2022-09-26T08:00:01.077Z,999.37
2022-09-26T08:01:01.156Z,999.35
2022-09-26T08:02:01.141Z,999.40
2022-09-26T08:03:01.227Z,999.37
2022-09-26T08:04:01.038Z,999.37
2022-09-26T08:05:01.384Z,999.34
2022-09-26T08:06:01.039Z,999.37
2022-09-26T08:07:01.019Z,999.36
2022-09-26T08:08:00.997Z,999.39
2022-09-26T08:09:00.996Z,999.40
2022-09-26T08:10:00.980Z,999.33
2022-09-26T08:11:04.022Z,999.33
2022-09-26T08:12:01.004Z,999.34
2022-09-26T08:13:00.952Z,999.34
2022-09-26T08:14:00.934Z,999.34
2022-09-26T08:15:00.921Z,999.38
2022-09-26T08:16:00.976Z,999.36
2022-09-26T08:17:00.912Z,999.31
2022-09-26T08:18:00.901Z,999.28
2022-09-26T08:19:00.879Z,999.33
2022-09-26T08:20:00.867Z,999.36
2022-09-26T08:21:00.866Z,999.34
2022-09-26T08:22:00.839Z,999.32
2022-09-26T08:23:00.844Z,999.30
2022-09-26T08:24:00.836Z,999.28
2022-09-26T08:25:00.810Z,999.26
2022-09-26T08:26:00.802Z,999.29
2022-09-26T08:27:00.803Z,999.27
2022-09-26T08:28:00.787Z,999.28
2022-09-26T08:29:00.781Z,999.30
2022-09-26T08:30:00.760Z,999.29
2022-09-26T08:31:00.882Z,999.25
2022-09-26T08:32:00.732Z,999.26
2022-09-26T08:33:00.724Z,999.31
2022-09-26T08:34:00.722Z,999.23
2022-09-26T08:35:00.723Z,999.26
2022-09-26T08:36:00.687Z,999.30
2022-09-26T08:37:00.685Z,999.25
2022-09-26T08:38:00.661Z,999.25
2022-09-26T08:39:00.655Z,999.27
2022-09-26T08:40:00.656Z,999.24
2022-09-26T08:41:00.713Z,999.25
2022-09-26T08:42:00.643Z,999.24
2022-09-26T08:43:00.624Z,999.22
2022-09-26T08:44:00.605Z,999.21
2022-09-26T08:45:00.598Z,999.25
2022-09-26T08:46:00.591Z,999.21
2022-09-26T08:47:00.649Z,999.20
2022-09-26T08:48:00.552Z,999.23
2022-09-26T08:49:00.555Z,999.16
2022-09-26T08:50:00.560Z,999.14
2022-09-26T08:51:00.525Z,999.15
2022-09-26T08:52:00.526Z,999.09
2022-09-26T08:53:00.508Z,999.12
2022-09-26T08:54:00.491Z,999.09
2022-09-26T08:55:00.494Z,999.10
2022-09-26T08:56:00.471Z,999.08
2022-09-26T08:57:00.460Z,999.11
2022-09-26T08:58:00.446Z,999.09
2022-09-26T08:59:00.450Z,999.11
2022-09-26T09:00:00.431Z,999.09
2022-09-26T09:01:00.437Z,999.07
2022-09-26T09:02:00.567Z,999.04
2022-09-26T09:03:00.451Z,999.02
2022-09-26T09:04:00.385Z,999.01
2022-09-26T09:05:00.392Z,998.94
2022-09-26T09:06:00.401Z,998.90
2022-09-26T09:07:00.355Z,998.91
2022-09-26T09:08:00.339Z,998.96
2022-09-26T09:09:00.328Z,998.93
2022-09-26T09:10:00.325Z,998.98
2022-09-26T09:11:00.327Z,998.98
2022-09-26T09:12:00.303Z,998.93
2022-09-26T09:13:00.295Z,998.90
2022-09-26T09:14:00.273Z,998.90
2022-09-26T09:15:23.514Z,998.93
2022-09-26T09:16:00.320Z,998.92
2022-09-26T09:17:00.266Z,998.96
2022-09-26T09:18:00.236Z,998.92
2022-09-26T09:19:00.230Z,998.89
2022-09-26T09:20:00.211Z,998.88
2022-09-26T09:21:00.233Z,998.91
2022-09-26T09:22:00.189Z,998.87
2022-09-26T09:23:00.196Z,998.89
2022-09-26T09:24:00.185Z,998.82
2022-09-26T09:25:00.155Z,998.79
2022-09-26T09:27:52.291Z,998.77
2022-09-26T09:28:02.600Z,998.77
2022-09-26T09:28:11.614Z,998.80
2022-09-26T09:29:10.467Z,998.77
2022-09-26T09:30:15.714Z,998.77
2022-09-26T09:31:07.342Z,998.78
2022-09-26T09:32:07.289Z,998.74
2022-09-26T09:33:07.281Z,998.76
2022-09-26T09:34:07.273Z,998.78
2022-09-26T09:35:07.293Z,998.76
2022-09-26T09:36:07.239Z,998.72
2022-09-26T09:37:07.360Z,998.75
2022-09-26T09:38:07.226Z,998.73
2022-09-26T09:39:07.213Z,998.73
2022-09-26T09:40:07.210Z,998.75
2022-09-26T09:41:07.309Z,998.68
2022-09-26T09:42:07.174Z,998.74
2022-09-26T09:43:07.172Z,998.74
2022-09-26T09:44:07.158Z,998.75
2022-09-26T09:45:07.154Z,998.72
2022-09-26T09:46:07.166Z,998.70
2022-09-26T09:47:07.122Z,998.68
2022-09-26T09:48:07.112Z,998.73
2022-09-26T09:49:07.101Z,998.67
2022-09-26T09:50:07.091Z,998.67
2022-09-26T09:51:07.097Z,998.64
2022-09-26T09:52:07.082Z,998.59
2022-09-26T09:53:07.061Z,998.55
2022-09-26T09:54:07.109Z,998.59
2022-09-26T09:55:07.038Z,998.58
2022-09-26T09:56:09.830Z,998.52
2022-09-26T09:57:07.016Z,998.51
2022-09-26T09:58:07.001Z,998.53
2022-09-26T09:59:06.997Z,998.53
2022-09-26T10:00:06.984Z,998.49
2022-09-26T10:01:07.047Z,998.54
2022-09-26T10:02:06.965Z,998.50
2022-09-26T10:03:07.035Z,998.49
2022-09-26T10:04:07.004Z,998.47
2022-09-26T10:05:06.946Z,998.46
2022-09-26T10:06:10.479Z,998.42
2022-09-26T10:07:06.923Z,998.44
2022-09-26T10:08:06.901Z,998.44
2022-09-26T10:09:38.709Z,998.39
2022-09-26T10:10:06.890Z,998.43
2022-09-26T10:11:06.864Z,998.40
2022-09-26T10:12:06.869Z,998.34
2022-09-26T10:13:06.842Z,998.38
2022-09-26T10:14:06.896Z,998.29
2022-09-26T10:15:06.828Z,998.31
2022-09-26T10:16:06.861Z,998.31
2022-09-26T10:17:06.814Z,998.26
2022-09-26T10:18:24.172Z,998.20
2022-09-26T10:19:06.829Z,998.10
2022-09-26T10:20:06.764Z,998.22
2022-09-26T10:21:06.795Z,998.18
2022-09-26T10:22:06.746Z,998.22
2022-09-26T10:23:06.734Z,998.20
2022-09-26T10:24:06.848Z,998.20
2022-09-26T10:25:06.713Z,998.14
2022-09-26T10:26:06.701Z,998.15
2022-09-26T10:27:06.693Z,998.13
2022-09-26T10:28:06.686Z,998.05
2022-09-26T10:29:06.692Z,998.02
2022-09-26T10:30:06.679Z,998.03
2022-09-26T10:31:06.742Z,998.04
2022-09-26T10:32:06.633Z,998.10
2022-09-26T10:33:06.650Z,998.13
2022-09-26T10:34:06.771Z,998.03
2022-09-26T10:35:06.607Z,998.02
2022-09-26T10:36:06.590Z,997.99
2022-09-26T10:37:06.588Z,997.97
2022-09-26T10:38:06.574Z,997.98
2022-09-26T10:39:06.571Z,997.92
2022-09-26T10:40:06.566Z,997.92
2022-09-26T10:41:06.623Z,997.89
2022-09-26T10:42:06.538Z,997.94
2022-09-26T10:43:06.519Z,997.94
2022-09-26T10:44:06.574Z,997.93
2022-09-26T10:45:06.519Z,997.94
2022-09-26T10:46:06.524Z,997.94
2022-09-26T10:47:06.472Z,997.95
2022-09-26T10:48:06.472Z,997.95
2022-09-26T10:49:06.447Z,997.93
2022-09-26T10:50:06.460Z,997.83
2022-09-26T10:51:06.436Z,997.97
2022-09-26T10:52:06.428Z,997.99
2022-09-26T10:53:06.409Z,997.96
2022-09-26T10:54:06.461Z,997.88
2022-09-26T10:55:06.401Z,997.98
2022-09-26T10:56:06.501Z,997.92
2022-09-26T10:57:06.373Z,997.91
2022-09-26T10:58:11.403Z,997.97
2022-09-26T10:59:06.351Z,998.00
2022-09-26T11:00:06.410Z,997.95
2022-09-26T11:01:06.335Z,997.93
2022-09-26T11:02:06.387Z,997.95
2022-09-26T11:03:06.307Z,997.91
2022-09-26T11:04:06.421Z,997.89
2022-09-26T11:05:06.278Z,997.89
2022-09-26T11:06:06.278Z,997.89
2022-09-26T11:07:06.275Z,997.86
2022-09-26T11:08:06.245Z,997.84
2022-09-26T11:09:06.248Z,997.84
2022-09-26T11:10:06.223Z,997.79
2022-09-26T11:11:06.211Z,997.80
2022-09-26T11:12:06.241Z,997.72
2022-09-26T11:13:06.191Z,997.77
2022-09-26T11:14:06.233Z,997.78
2022-09-26T11:15:06.166Z,997.80
2022-09-26T11:16:06.204Z,997.80
2022-09-26T11:17:06.158Z,997.83
2022-09-26T11:18:06.169Z,997.78
2022-09-26T11:19:06.187Z,997.78
2022-09-26T11:20:06.154Z,997.74
2022-09-26T11:21:18.283Z,997.73
2022-09-26T11:22:08.331Z,997.68
2022-09-26T11:23:06.100Z,997.70
2022-09-26T11:24:06.130Z,997.68
2022-09-26T11:25:06.070Z,997.67
2022-09-26T11:26:06.052Z,997.66
2022-09-26T11:27:06.055Z,997.57
2022-09-26T11:28:06.072Z,997.58
2022-09-26T11:29:06.153Z,997.57
2022-09-26T11:30:06.019Z,997.58
2022-09-26T11:31:06.104Z,997.64
2022-09-26T11:32:06.003Z,997.59
2022-09-26T11:33:06.066Z,997.63
2022-09-26T11:34:06.053Z,997.57
2022-09-26T11:35:05.971Z,997.60
2022-09-26T11:36:05.945Z,997.58
2022-09-26T11:37:05.938Z,997.58
2022-09-26T11:38:05.932Z,997.55
2022-09-26T11:39:05.961Z,997.52
2022-09-26T11:40:09.558Z,997.54
2022-09-26T11:41:05.965Z,997.45
2022-09-26T11:42:05.891Z,997.43
2022-09-26T11:43:05.887Z,997.46
2022-09-26T11:44:05.955Z,997.44
2022-09-26T11:45:05.886Z,997.43
2022-09-26T11:46:05.873Z,997.43
2022-09-26T11:47:05.831Z,997.48
2022-09-26T11:48:05.818Z,997.48
2022-09-26T11:49:05.810Z,997.47
2022-09-26T11:50:05.827Z,997.55
2022-09-26T11:51:05.802Z,997.48
2022-09-26T11:52:05.799Z,997.41
2022-09-26T11:53:05.768Z,997.40
2022-09-26T11:54:05.810Z,997.41
2022-09-26T11:55:05.877Z,997.39
2022-09-26T11:56:05.739Z,997.38
2022-09-26T11:57:05.743Z,997.35
2022-09-26T11:58:05.731Z,997.32
2022-09-26T11:59:05.708Z,997.37
2022-09-26T12:00:05.702Z,997.33
2022-09-26T12:01:05.693Z,997.36
2022-09-26T12:02:05.673Z,997.34
2022-09-26T12:03:05.743Z,997.34
2022-09-26T12:04:05.818Z,997.31
2022-09-26T12:05:05.638Z,997.30
2022-09-26T12:06:05.627Z,997.33
2022-09-26T12:07:05.620Z,997.27
2022-09-26T12:08:05.617Z,997.30
2022-09-26T12:09:05.748Z,997.22
2022-09-26T12:10:05.582Z,997.21
2022-09-26T12:11:05.593Z,997.15
2022-09-26T12:12:05.560Z,997.17
2022-09-26T12:13:05.559Z,997.11
2022-09-26T12:14:05.536Z,997.09
2022-09-26T12:15:05.589Z,997.08
2022-09-26T12:16:05.550Z,997.07
2022-09-26T12:17:05.537Z,997.04
2022-09-26T12:18:05.496Z,997.07